createdAt,value
2018-08-03T00:01:46.928Z,22.40
2018-08-03T00:04:15.288Z,24.52
2018-08-03T00:06:43.663Z,21.77
2018-08-03T00:09:12.054Z,24.70
2018-08-03T00:11:40.406Z,26.50
2018-08-03T00:14:08.807Z,24.20
2018-08-03T00:16:37.147Z,26.87
2018-08-03T00:19:05.263Z,21.42
2018-08-03T00:21:33.615Z,27.22
2018-08-03T00:24:02.012Z,24.90
2018-08-03T00:26:30.385Z,24.82
2018-08-03T00:28:58.782Z,28.00
2018-08-03T00:31:27.128Z,24.40
2018-08-03T00:33:55.491Z,24.20
2018-08-03T00:36:23.882Z,29.35
2018-08-03T00:38:52.278Z,22.50
2018-08-03T00:41:20.659Z,25.72
2018-08-03T00:43:49.024Z,26.80
2018-08-03T00:46:17.382Z,23.73
2018-08-03T00:48:45.796Z,22.27
2018-08-03T00:51:14.219Z,25.77
2018-08-03T00:53:42.633Z,23.95
2018-08-03T00:56:10.974Z,22.48
2018-08-03T00:58:39.343Z,22.82
2018-08-03T01:01:07.744Z,28.75
2018-08-03T01:03:36.119Z,26.65
2018-08-03T01:06:04.484Z,30.10
2018-08-03T01:08:32.851Z,25.30
2018-08-03T01:11:01.168Z,27.40
2018-08-03T01:13:29.532Z,21.40
2018-08-03T01:15:57.872Z,27.55
2018-08-03T01:18:26.259Z,25.40
2018-08-03T01:20:54.679Z,32.70
2018-08-03T01:23:23.036Z,31.93
2018-08-03T01:25:51.467Z,24.15
2018-08-03T01:28:19.887Z,25.35
2018-08-03T01:30:48.208Z,26.20
2018-08-03T01:33:16.594Z,23.40
2018-08-03T01:35:44.631Z,23.55
2018-08-03T01:38:12.991Z,26.55
2018-08-03T01:40:41.308Z,24.52
2018-08-03T01:43:09.662Z,26.10
2018-08-03T01:45:37.985Z,23.02
2018-08-03T01:48:06.356Z,23.47
2018-08-03T01:50:34.669Z,24.57
2018-08-03T01:53:03.948Z,27.50
2018-08-03T01:55:32.269Z,23.10
2018-08-03T01:58:00.617Z,24.43
2018-08-03T02:00:29.021Z,28.40
2018-08-03T02:02:57.367Z,32.98
2018-08-03T02:05:25.752Z,25.48
2018-08-03T02:07:54.103Z,27.32
2018-08-03T02:10:22.443Z,28.02
2018-08-03T02:12:50.852Z,25.00
2018-08-03T02:15:18.898Z,26.17
2018-08-03T02:17:47.275Z,25.70
2018-08-03T02:20:15.632Z,24.92
2018-08-03T02:22:43.985Z,23.45
2018-08-03T02:25:12.308Z,28.95
2018-08-03T02:27:40.696Z,24.37
2018-08-03T02:30:09.060Z,24.05
2018-08-03T02:32:37.440Z,28.30
2018-08-03T02:35:05.881Z,33.25
2018-08-03T02:37:34.260Z,29.35
2018-08-03T02:40:02.596Z,26.37
2018-08-03T02:42:30.969Z,27.65
2018-08-03T02:44:59.328Z,31.45
2018-08-03T02:47:27.685Z,24.02
2018-08-03T02:49:56.031Z,24.07
2018-08-03T02:52:24.152Z,33.75
2018-08-03T02:54:52.963Z,24.50
2018-08-03T02:57:21.323Z,24.30
2018-08-03T02:59:49.657Z,25.70
2018-08-03T03:02:18.037Z,26.65
2018-08-03T03:04:46.403Z,25.52
2018-08-03T03:07:14.504Z,30.82
2018-08-03T03:09:42.860Z,33.80
2018-08-03T03:12:11.300Z,25.88
2018-08-03T03:14:39.663Z,32.75
2018-08-03T03:17:08.031Z,28.00
2018-08-03T03:19:36.559Z,27.75
2018-08-03T03:22:04.944Z,27.55
2018-08-03T03:24:33.408Z,32.50
2018-08-03T03:27:01.744Z,27.37
2018-08-03T03:29:30.108Z,25.60
2018-08-03T03:31:58.440Z,35.78
2018-08-03T03:34:26.812Z,27.07
2018-08-03T03:36:55.150Z,30.92
2018-08-03T03:39:23.511Z,27.55
2018-08-03T03:41:51.567Z,31.25
2018-08-03T03:44:19.932Z,23.73
2018-08-03T03:46:48.280Z,25.37
2018-08-03T03:49:16.659Z,30.35
2018-08-03T03:51:44.976Z,29.95
2018-08-03T03:54:13.344Z,27.37
2018-08-03T03:56:41.694Z,26.75
2018-08-03T03:59:10.074Z,26.10
2018-08-03T04:01:38.443Z,27.80
2018-08-03T04:04:07.021Z,41.13
2018-08-03T04:06:35.349Z,31.00
2018-08-03T04:09:05.819Z,32.60
2018-08-03T04:11:34.160Z,29.02
2018-08-03T04:14:02.552Z,28.57
2018-08-03T04:16:30.612Z,31.50
2018-08-03T04:18:58.981Z,29.60
2018-08-03T04:21:27.331Z,33.23
2018-08-03T04:23:55.692Z,45.05
2018-08-03T04:26:24.020Z,35.08
2018-08-03T04:28:52.399Z,33.25
2018-08-03T04:31:20.732Z,29.45
2018-08-03T04:33:49.112Z,37.83
2018-08-03T04:36:17.451Z,31.55
2018-08-03T04:38:45.534Z,32.70
2018-08-03T04:41:13.856Z,33.18
2018-08-03T04:43:42.237Z,34.85
2018-08-03T04:46:10.591Z,30.30
2018-08-03T04:48:39.015Z,35.05
2018-08-03T04:51:07.359Z,34.18
2018-08-03T04:53:35.768Z,31.70
2018-08-03T04:56:04.147Z,26.23
2018-08-03T04:58:32.488Z,34.67
2018-08-03T05:01:00.944Z,42.75
2018-08-03T05:03:29.279Z,30.92
2018-08-03T05:05:57.682Z,31.12
2018-08-03T05:08:26.048Z,33.38
2018-08-03T05:10:54.404Z,33.23
2018-08-03T05:13:22.776Z,38.13
2018-08-03T05:15:51.144Z,36.48
2018-08-03T05:18:19.508Z,35.85
2018-08-03T05:20:47.885Z,31.68
2018-08-03T05:23:16.265Z,37.25
2018-08-03T05:25:44.633Z,36.98
2018-08-03T05:28:13.048Z,39.18
2018-08-03T05:30:41.481Z,34.48
2018-08-03T05:33:09.879Z,37.85
2018-08-03T05:35:38.233Z,42.38
2018-08-03T05:38:06.635Z,36.90
2018-08-03T05:40:35.019Z,40.10
2018-08-03T05:43:03.399Z,39.67
2018-08-03T05:45:31.821Z,43.52
2018-08-03T05:48:00.195Z,36.38
2018-08-03T05:50:28.522Z,46.75
2018-08-03T05:52:56.907Z,35.58
2018-08-03T05:55:25.255Z,35.58
2018-08-03T05:57:53.636Z,48.55
2018-08-03T06:00:21.990Z,41.68
2018-08-03T06:02:50.536Z,41.40
2018-08-03T06:05:18.900Z,40.48
2018-08-03T06:07:47.267Z,40.10
2018-08-03T06:10:15.329Z,45.43
2018-08-03T06:12:43.708Z,53.47
2018-08-03T06:15:12.426Z,49.13
2018-08-03T06:17:40.959Z,43.40
2018-08-03T06:20:11.204Z,49.70
2018-08-03T06:22:39.684Z,39.10
2018-08-03T06:25:08.576Z,43.20
2018-08-03T06:27:36.632Z,39.47
2018-08-03T06:30:06.084Z,36.83
2018-08-03T06:32:34.611Z,32.60
2018-08-03T06:35:02.992Z,36.67
2018-08-03T06:37:31.340Z,39.63
2018-08-03T06:39:59.716Z,37.10
2018-08-03T06:42:28.113Z,35.00
2018-08-03T06:44:56.452Z,28.57
2018-08-03T06:47:24.861Z,35.00
2018-08-03T06:49:53.184Z,28.70
2018-08-03T06:52:21.715Z,29.13
2018-08-03T06:54:50.065Z,44.37
2018-08-03T06:57:18.492Z,34.23
2018-08-03T06:59:46.878Z,39.40
2018-08-03T07:02:15.243Z,30.77
2018-08-03T07:04:43.576Z,27.30
2018-08-03T07:07:11.956Z,31.07
2018-08-03T07:09:40.325Z,27.40
2018-08-03T07:12:08.719Z,29.20
2018-08-03T07:14:37.110Z,29.13
2018-08-03T07:17:05.485Z,27.73
2018-08-03T07:19:33.833Z,26.70
2018-08-03T07:22:02.235Z,28.17
2018-08-03T07:24:30.331Z,29.87
2018-08-03T07:26:58.688Z,29.97
2018-08-03T07:29:27.069Z,33.27
2018-08-03T07:31:55.412Z,28.00
2018-08-03T07:34:23.793Z,26.57
2018-08-03T07:36:52.166Z,26.43
2018-08-03T07:39:20.535Z,29.00
2018-08-03T07:41:48.895Z,28.30
2018-08-03T07:44:17.309Z,27.33
2018-08-03T07:46:45.953Z,28.50
2018-08-03T07:49:14.413Z,28.17
2018-08-03T07:51:42.781Z,27.07
2018-08-03T07:54:11.158Z,30.00
2018-08-03T07:56:39.215Z,36.50
2018-08-03T07:59:07.547Z,29.20
2018-08-03T08:01:36.006Z,32.97
2018-08-03T08:04:04.336Z,24.50
2018-08-03T08:06:32.688Z,39.67
2018-08-03T08:09:01.040Z,32.73
2018-08-03T08:11:29.444Z,31.63
2018-08-03T08:13:57.796Z,26.40
2018-08-03T08:16:26.151Z,25.53
2018-08-03T08:18:54.523Z,32.57
2018-08-03T08:21:22.908Z,34.67
2018-08-03T08:23:51.003Z,29.40
2018-08-03T08:26:19.078Z,26.50
2018-08-03T08:28:47.399Z,33.77
2018-08-03T08:31:15.767Z,28.20
2018-08-03T08:33:44.100Z,28.20
2018-08-03T08:36:12.205Z,27.27
2018-08-03T08:38:40.543Z,28.17
2018-08-03T08:41:08.894Z,33.20
2018-08-03T08:43:37.336Z,30.33
2018-08-03T08:46:05.736Z,29.83
2018-08-03T08:48:34.109Z,26.37
2018-08-03T08:51:02.443Z,26.00
2018-08-03T08:53:30.807Z,27.23
2018-08-03T08:55:59.129Z,27.63
2018-08-03T08:58:27.488Z,28.13
2018-08-03T09:00:55.883Z,24.23
2018-08-03T09:03:24.211Z,27.73
2018-08-03T09:05:52.555Z,29.23
2018-08-03T09:08:21.012Z,26.77
2018-08-03T09:10:49.380Z,22.57
2018-08-03T09:13:17.514Z,19.80
2018-08-03T09:15:45.846Z,20.93
2018-08-03T09:18:14.173Z,23.50
2018-08-03T09:20:42.528Z,24.50
2018-08-03T09:23:10.851Z,31.03
2018-08-03T09:25:39.255Z,26.00
2018-08-03T09:28:07.904Z,23.87
2018-08-03T09:30:36.235Z,20.80
2018-08-03T09:33:04.599Z,18.67
2018-08-03T09:35:32.924Z,25.00
2018-08-03T09:38:01.285Z,22.13
2018-08-03T09:40:29.711Z,20.83
2018-08-03T09:42:58.123Z,21.87
2018-08-03T09:45:26.487Z,25.33
2018-08-03T09:47:54.855Z,19.60
2018-08-03T09:50:23.239Z,22.07
2018-08-03T09:52:51.619Z,18.53
2018-08-03T09:55:19.819Z,27.73
2018-08-03T09:57:48.146Z,22.27
2018-08-03T10:00:17.188Z,26.83
2018-08-03T10:02:46.244Z,21.77
2018-08-03T10:05:14.586Z,21.10
2018-08-03T10:07:42.912Z,19.40
2018-08-03T10:10:11.007Z,29.27
2018-08-03T10:12:39.333Z,27.93
2018-08-03T10:15:07.745Z,18.23
2018-08-03T10:17:35.830Z,18.33
2018-08-03T10:20:07.344Z,25.13
2018-08-03T10:22:35.937Z,20.73
2018-08-03T10:25:04.293Z,23.33
2018-08-03T10:27:32.664Z,26.03
2018-08-03T10:30:01.029Z,19.33
2018-08-03T10:32:29.440Z,20.23
2018-08-03T10:34:57.835Z,27.33
2018-08-03T10:37:26.187Z,24.70
2018-08-03T10:39:54.562Z,21.60
2018-08-03T10:42:22.917Z,22.27
2018-08-03T10:44:51.288Z,22.73
2018-08-03T10:47:19.635Z,26.43
2018-08-03T10:49:47.960Z,22.00
2018-08-03T10:52:16.315Z,19.87
2018-08-03T10:54:44.671Z,23.80
2018-08-03T10:57:13.057Z,24.60
2018-08-03T10:59:41.569Z,26.87
2018-08-03T11:02:10.368Z,25.23
2018-08-03T11:04:39.297Z,21.13
2018-08-03T11:07:07.670Z,21.07
2018-08-03T11:09:36.039Z,25.67
2018-08-03T11:12:04.867Z,24.53
2018-08-03T11:14:33.252Z,19.57
2018-08-03T11:17:01.617Z,20.70
2018-08-03T11:19:30.057Z,25.13
2018-08-03T11:21:58.492Z,21.23
2018-08-03T11:24:26.592Z,29.13
2018-08-03T11:26:54.927Z,21.37
2018-08-03T11:29:23.284Z,24.17
2018-08-03T11:31:51.648Z,21.50
2018-08-03T11:34:19.975Z,18.00
2018-08-03T11:36:48.316Z,24.00
2018-08-03T11:39:16.631Z,25.57
2018-08-03T11:41:45.005Z,24.70
2018-08-03T11:44:13.359Z,20.37
2018-08-03T11:46:41.715Z,23.83
2018-08-03T11:49:10.043Z,20.40
2018-08-03T11:51:38.219Z,23.27
2018-08-03T11:54:06.659Z,20.23
2018-08-03T11:56:35.008Z,19.50
2018-08-03T11:59:03.352Z,17.77
2018-08-03T12:01:31.715Z,19.50
2018-08-03T12:04:00.040Z,35.47
2018-08-03T12:06:28.459Z,22.87
2018-08-03T12:08:56.776Z,18.37
2018-08-03T12:11:25.195Z,17.03
2018-08-03T12:13:53.519Z,17.13
2018-08-03T12:16:21.897Z,16.13
2018-08-03T12:18:50.255Z,23.17
2018-08-03T12:21:18.621Z,17.03
2018-08-03T12:23:47.017Z,19.20
2018-08-03T12:26:15.466Z,20.00
2018-08-03T12:28:43.951Z,22.93
2018-08-03T12:31:12.321Z,21.50
2018-08-03T12:33:40.677Z,20.50
2018-08-03T12:36:08.744Z,19.73
2018-08-03T12:38:36.806Z,20.27
2018-08-03T12:41:05.139Z,19.10
2018-08-03T12:43:33.498Z,16.30
2018-08-03T12:46:02.395Z,25.03
2018-08-03T12:48:30.724Z,18.53
2018-08-03T12:50:59.091Z,21.30
2018-08-03T12:53:27.421Z,27.70
2018-08-03T12:55:55.802Z,16.67
2018-08-03T12:58:24.140Z,16.57
2018-08-03T13:00:52.464Z,16.40
2018-08-03T13:03:20.881Z,14.67
2018-08-03T13:05:49.212Z,19.80
2018-08-03T13:08:17.635Z,14.23
2018-08-03T13:10:46.107Z,16.43
2018-08-03T13:13:14.471Z,18.13
2018-08-03T13:15:42.828Z,15.80
2018-08-03T13:18:11.172Z,17.17
2018-08-03T13:20:39.550Z,17.30
2018-08-03T13:23:07.893Z,18.40
2018-08-03T13:25:36.232Z,22.60
2018-08-03T13:28:04.625Z,16.83
2018-08-03T13:30:32.948Z,18.93
2018-08-03T13:33:01.301Z,21.33
2018-08-03T13:35:29.630Z,13.60
2018-08-03T13:37:58.024Z,19.80
2018-08-03T13:40:26.367Z,18.90
2018-08-03T13:42:54.771Z,16.30
2018-08-03T13:45:22.855Z,14.63
2018-08-03T13:47:50.965Z,17.10
2018-08-03T13:50:19.413Z,22.90
2018-08-03T13:52:47.859Z,23.00
2018-08-03T13:55:16.221Z,20.13
2018-08-03T13:57:44.586Z,22.53
2018-08-03T14:00:13.791Z,19.37
2018-08-03T14:02:42.389Z,16.40
2018-08-03T14:05:11.219Z,20.40
2018-08-03T14:07:39.597Z,18.37
2018-08-03T14:10:08.599Z,13.90
2018-08-03T14:12:36.943Z,22.30
2018-08-03T14:15:06.140Z,18.00
2018-08-03T14:17:34.579Z,19.63
2018-08-03T14:20:02.952Z,18.97
2018-08-03T14:22:31.309Z,17.23
2018-08-03T14:24:59.398Z,18.37
2018-08-03T14:27:27.772Z,18.20
2018-08-03T14:29:56.127Z,19.07
2018-08-03T14:32:24.260Z,15.43
2018-08-03T14:34:52.644Z,19.43
2018-08-03T14:37:21.006Z,17.20
2018-08-03T14:39:49.374Z,17.40
2018-08-03T14:42:17.732Z,17.70
2018-08-03T14:44:46.132Z,15.47
2018-08-03T14:47:14.623Z,14.93
2018-08-03T14:49:42.963Z,21.63
2018-08-03T14:52:11.078Z,19.40
2018-08-03T14:54:39.531Z,16.60
2018-08-03T14:57:15.907Z,15.40
2018-08-03T14:59:44.285Z,17.13
2018-08-03T15:02:12.674Z,16.90
2018-08-03T15:04:41.012Z,17.83
2018-08-03T15:07:09.377Z,13.80
2018-08-03T15:09:37.747Z,18.80
2018-08-03T15:12:06.079Z,21.70
2018-08-03T15:14:34.467Z,27.93
2018-08-03T15:17:02.905Z,18.80
2018-08-03T15:19:31.330Z,15.83
2018-08-03T15:21:59.699Z,18.70
2018-08-03T15:24:28.078Z,23.80
2018-08-03T15:27:00.304Z,15.70
2018-08-03T15:29:28.688Z,14.37
2018-08-03T15:31:57.072Z,17.60
2018-08-03T15:34:25.493Z,21.93
2018-08-03T15:36:53.858Z,16.33
2018-08-03T15:39:22.196Z,17.07
2018-08-03T15:41:50.553Z,13.63
2018-08-03T15:44:18.927Z,13.00
2018-08-03T15:46:47.298Z,14.10
2018-08-03T15:49:15.643Z,13.27
2018-08-03T15:51:43.720Z,17.60
2018-08-03T15:54:12.207Z,16.77
2018-08-03T15:56:40.588Z,13.83
2018-08-03T15:59:08.964Z,15.60
2018-08-03T16:01:37.347Z,15.40
2018-08-03T16:04:05.993Z,16.00
2018-08-03T16:06:34.386Z,14.67
2018-08-03T16:09:02.836Z,23.80
2018-08-03T16:11:31.227Z,15.40
2018-08-03T16:13:59.607Z,19.63
2018-08-03T16:16:27.959Z,21.37
2018-08-03T16:18:56.371Z,15.77
2018-08-03T16:21:24.665Z,12.67
2018-08-03T16:23:53.079Z,16.03
2018-08-03T16:26:21.419Z,14.00
2018-08-03T16:28:49.828Z,18.43
2018-08-03T16:31:18.539Z,14.33
2018-08-03T16:33:46.888Z,16.43
2018-08-03T16:36:15.280Z,16.73
2018-08-03T16:38:43.649Z,19.30
2018-08-03T16:41:11.999Z,16.30
2018-08-03T16:43:40.179Z,19.33
2018-08-03T16:46:08.231Z,15.40
2018-08-03T16:48:36.851Z,16.97
2018-08-03T16:51:04.911Z,13.77
2018-08-03T16:53:33.300Z,16.67
2018-08-03T16:56:01.669Z,17.37
2018-08-03T16:58:29.745Z,17.53
2018-08-03T17:00:58.104Z,15.37
2018-08-03T17:03:26.471Z,14.60
2018-08-03T17:06:10.958Z,13.50
2018-08-03T17:08:39.070Z,15.10
2018-08-03T17:11:09.458Z,17.17
2018-08-03T17:13:37.910Z,16.17
2018-08-03T17:16:07.013Z,16.10
2018-08-03T17:18:38.283Z,16.30
2018-08-03T17:21:06.855Z,14.97
2018-08-03T17:23:35.276Z,17.63
2018-08-03T17:26:03.911Z,24.13
2018-08-03T17:28:34.147Z,15.53
2018-08-03T17:31:02.667Z,16.00
2018-08-03T17:33:31.109Z,12.93
2018-08-03T17:36:01.706Z,14.60
2018-08-03T17:38:29.993Z,20.43
2018-08-03T17:40:59.946Z,25.17
2018-08-03T17:43:28.245Z,16.90
2018-08-03T17:45:56.636Z,17.57
2018-08-03T17:48:26.253Z,14.67
2018-08-03T17:50:59.529Z,15.17
2018-08-03T17:53:27.920Z,20.43
2018-08-03T17:55:56.403Z,18.77
2018-08-03T17:58:24.823Z,16.73
2018-08-03T18:00:53.261Z,18.63
2018-08-03T18:03:22.071Z,15.87
2018-08-03T18:05:50.555Z,17.37
2018-08-03T18:08:18.927Z,16.77
2018-08-03T18:10:47.579Z,16.93
2018-08-03T18:13:16.204Z,23.20
2018-08-03T18:15:44.541Z,22.30
2018-08-03T18:18:13.013Z,18.27
2018-08-03T18:20:41.856Z,14.30
2018-08-03T18:23:10.523Z,17.53
2018-08-03T18:25:39.364Z,15.80
2018-08-03T18:28:08.355Z,13.70
2018-08-03T18:30:36.775Z,22.67
2018-08-03T18:33:05.492Z,37.77
2018-08-03T18:35:33.967Z,42.57
2018-08-03T18:38:02.307Z,32.00
2018-08-03T18:40:30.821Z,30.83
2018-08-03T18:42:58.887Z,23.27
2018-08-03T18:45:27.234Z,18.80
2018-08-03T18:47:55.368Z,25.03
2018-08-03T18:50:23.756Z,16.70
2018-08-03T18:52:52.287Z,22.53
2018-08-03T18:55:20.940Z,18.40
2018-08-03T18:57:49.308Z,21.10
2018-08-03T19:00:17.696Z,19.27
2018-08-03T19:02:46.063Z,23.57
2018-08-03T19:05:14.400Z,20.83
2018-08-03T19:07:42.769Z,19.70
2018-08-03T19:10:18.284Z,29.00
2018-08-03T19:12:46.409Z,18.70
2018-08-03T19:15:15.801Z,22.60
2018-08-03T19:17:44.157Z,22.23
2018-08-03T19:20:12.544Z,16.90
2018-08-03T19:22:40.932Z,24.57
2018-08-03T19:25:09.441Z,20.97
2018-08-03T19:27:37.879Z,20.43
2018-08-03T19:30:06.564Z,21.10
2018-08-03T19:32:34.997Z,18.90
2018-08-03T19:35:03.467Z,21.10
2018-08-03T19:37:31.923Z,18.60
2018-08-03T19:40:00.543Z,26.13
2018-08-03T19:42:28.876Z,20.67
2018-08-03T19:44:57.251Z,22.27
2018-08-03T19:47:25.657Z,32.23
2018-08-03T19:49:54.033Z,24.40
2018-08-03T19:52:22.471Z,23.90
2018-08-03T19:54:50.567Z,21.60
2018-08-03T19:57:18.928Z,18.63
2018-08-03T19:59:47.298Z,21.83
2018-08-03T20:02:15.663Z,21.10
2018-08-03T20:04:44.020Z,26.33
2018-08-03T20:07:12.365Z,25.20
2018-08-03T20:09:40.843Z,27.70
2018-08-03T20:12:09.384Z,31.03
2018-08-03T20:14:37.513Z,29.33
2018-08-03T20:17:05.976Z,28.37
2018-08-03T20:19:34.341Z,22.57
2018-08-03T20:22:02.491Z,21.67
2018-08-03T20:24:30.886Z,16.77
2018-08-03T20:26:58.950Z,19.20
2018-08-03T20:29:27.343Z,17.13
2018-08-03T20:31:55.748Z,20.50
2018-08-03T20:34:24.162Z,20.70
2018-08-03T20:36:52.509Z,18.57
2018-08-03T20:39:20.911Z,20.53
2018-08-03T20:41:49.272Z,15.57
2018-08-03T20:44:17.680Z,37.07
2018-08-03T20:46:46.055Z,20.37
2018-08-03T20:49:14.436Z,18.17
2018-08-03T20:51:42.861Z,20.60
2018-08-03T20:54:11.317Z,19.93
2018-08-03T20:56:39.731Z,18.40
2018-08-03T20:59:08.127Z,21.37
2018-08-03T21:01:36.611Z,23.60
2018-08-03T21:04:05.069Z,21.50
2018-08-03T21:06:33.519Z,20.67
2018-08-03T21:09:01.970Z,19.43
2018-08-03T21:11:30.324Z,22.53
2018-08-03T21:13:58.757Z,24.43
2018-08-03T21:16:27.149Z,23.63
2018-08-03T21:18:55.508Z,22.10
2018-08-03T21:21:23.991Z,20.60
2018-08-03T21:23:52.397Z,21.10
2018-08-03T21:26:20.768Z,24.43
2018-08-03T21:28:49.200Z,18.87
2018-08-03T21:31:17.547Z,18.27
2018-08-03T21:33:46.181Z,16.90
2018-08-03T21:36:14.889Z,17.73
2018-08-03T21:38:43.259Z,25.50
2018-08-03T21:41:11.658Z,22.87
2018-08-03T21:43:40.103Z,18.80
2018-08-03T21:46:08.624Z,18.70
2018-08-03T21:48:37.063Z,16.93
2018-08-03T21:51:05.424Z,24.60
2018-08-03T21:53:33.835Z,22.30
2018-08-03T21:56:02.291Z,18.00
2018-08-03T21:58:30.804Z,16.23
2018-08-03T22:00:59.148Z,19.80
2018-08-03T22:03:27.547Z,24.07
2018-08-03T22:05:55.903Z,25.27
2018-08-03T22:08:24.273Z,32.00
2018-08-03T22:10:52.736Z,19.53
2018-08-03T22:13:21.196Z,23.23
2018-08-03T22:15:49.566Z,17.87
2018-08-03T22:18:17.896Z,21.27
2018-08-03T22:20:46.423Z,19.50
2018-08-03T22:23:14.796Z,19.00
2018-08-03T22:25:43.187Z,23.87
2018-08-03T22:28:11.567Z,24.93
2018-08-03T22:30:40.008Z,21.00
2018-08-03T22:33:08.404Z,20.23
2018-08-03T22:35:36.727Z,17.60
2018-08-03T22:38:05.140Z,21.43
2018-08-03T22:40:33.473Z,20.03
2018-08-03T22:43:01.583Z,20.77
2018-08-03T22:45:30.067Z,22.27
2018-08-03T22:47:58.451Z,19.40
2018-08-03T22:50:26.781Z,22.70
2018-08-03T22:52:55.151Z,23.60
2018-08-03T22:55:23.503Z,20.00
2018-08-03T22:57:51.888Z,19.70
2018-08-03T23:00:20.309Z,19.57
2018-08-03T23:02:48.420Z,18.50
2018-08-03T23:05:16.767Z,23.83
2018-08-03T23:07:45.178Z,18.37
2018-08-03T23:10:13.547Z,24.93
2018-08-03T23:12:41.991Z,19.33
2018-08-03T23:15:10.372Z,20.80
2018-08-03T23:17:38.727Z,19.57
2018-08-03T23:20:07.525Z,20.70
2018-08-03T23:22:35.959Z,20.90
2018-08-03T23:25:04.310Z,20.70
2018-08-03T23:27:32.718Z,25.73
2018-08-03T23:30:01.052Z,23.87
2018-08-03T23:32:29.422Z,20.93
2018-08-03T23:34:57.752Z,21.80
2018-08-03T23:37:26.110Z,24.10
2018-08-03T23:39:54.797Z,23.10
2018-08-03T23:42:23.160Z,21.30
2018-08-03T23:44:51.224Z,25.07
2018-08-03T23:47:19.312Z,21.00
2018-08-03T23:49:47.693Z,22.80
2018-08-03T23:52:16.163Z,25.07
2018-08-03T23:54:44.520Z,22.60
2018-08-03T23:57:12.895Z,21.00
2018-08-03T23:59:41.379Z,35.25
